Terminal Aerodrome Forecast
Issued by NWS Omaha/Valley, NE

Home | Current Version | Previous Version | Graphics & Text | Print | Product List | Glossary On
Versions: 1 2 3 4 5 6 7 8 9 10 11 12 13 14 15 16
000
FTUS43 KOAX 191730
TAFOFK
TAF
KOFK 191730Z 1918/2018 15018G28KT P6SM BKN250
     FM200100 16015KT P6SM FEW200 WS020/16045KT
     FM200500 21015G23KT P6SM FEW250
     FM200700 25012KT P6SM FEW250
     FM200800 29010KT P6SM FEW250
     FM201200 31006KT P6SM FEW250=

USA.gov is the U.S. government's official web portal to all federal, state and local government web resources and services.